<?xml version="1.0" encoding="UTF-8" standalone="no" ?>
<gpx xmlns="http://www.topografix.com/GPX/1/1" xmlns:xsi="http://www.w3.org/2001/XMLSchema-instance" xsi:schemaLocation="http://www.topografix.com/GPX/1/1 http://www.topografix.com/GPX/1/1/gpx.xsd" version="1.1" creator="VisuGPX - https://www.visugpx.com">
  <metadata>
    <name>Boucle à partir de la mairie vers Plassard, La Barbinière, etc ...</name>
  </metadata>
  <trk>
    <name><![CDATA[12743388-st laurent  st laurent]]></name>
    <trkseg>
      <trkpt lat="46.95898" lon="-0.88653">
        <ele>112</ele>
        <time>2021-03-26T08:28:17Z</time>
      </trkpt>
      <trkpt lat="46.95866" lon="-0.88685">
        <ele>111</ele>
        <time>2021-03-26T08:28:48Z</time>
      </trkpt>
      <trkpt lat="46.9582" lon="-0.88602">
        <ele>111</ele>
        <time>2021-03-26T08:29:46Z</time>
      </trkpt>
      <trkpt lat="46.958" lon="-0.88559">
        <ele>111</ele>
        <time>2021-03-26T08:30:15Z</time>
      </trkpt>
      <trkpt lat="46.95761" lon="-0.88501">
        <ele>110</ele>
        <time>2021-03-26T08:30:59Z</time>
      </trkpt>
      <trkpt lat="46.95703" lon="-0.88438">
        <ele>111</ele>
        <time>2021-03-26T08:31:57Z</time>
      </trkpt>
      <trkpt lat="46.95648" lon="-0.88384">
        <ele>112</ele>
        <time>2021-03-26T08:32:50Z</time>
      </trkpt>
      <trkpt lat="46.95585" lon="-0.88339">
        <ele>117</ele>
        <time>2021-03-26T08:33:46Z</time>
      </trkpt>
      <trkpt lat="46.95561" lon="-0.88324">
        <ele>117</ele>
        <time>2021-03-26T08:34:07Z</time>
      </trkpt>
      <trkpt lat="46.95499" lon="-0.88333">
        <ele>114</ele>
        <time>2021-03-26T08:34:57Z</time>
      </trkpt>
      <trkpt lat="46.95449" lon="-0.88379">
        <ele>112</ele>
        <time>2021-03-26T08:35:44Z</time>
      </trkpt>
      <trkpt lat="46.95405" lon="-0.88386">
        <ele>112</ele>
        <time>2021-03-26T08:36:20Z</time>
      </trkpt>
      <trkpt lat="46.95368" lon="-0.88382">
        <ele>114</ele>
        <time>2021-03-26T08:36:50Z</time>
      </trkpt>
      <trkpt lat="46.95329" lon="-0.88382">
        <ele>115</ele>
        <time>2021-03-26T08:37:21Z</time>
      </trkpt>
      <trkpt lat="46.95289" lon="-0.88388">
        <ele>118</ele>
        <time>2021-03-26T08:37:53Z</time>
      </trkpt>
      <trkpt lat="46.95255" lon="-0.88393">
        <ele>119</ele>
        <time>2021-03-26T08:38:20Z</time>
      </trkpt>
      <trkpt lat="46.95193" lon="-0.88375">
        <ele>121</ele>
        <time>2021-03-26T08:39:11Z</time>
      </trkpt>
      <trkpt lat="46.95149" lon="-0.88357">
        <ele>121</ele>
        <time>2021-03-26T08:39:47Z</time>
      </trkpt>
      <trkpt lat="46.9512" lon="-0.88332">
        <ele>121</ele>
        <time>2021-03-26T08:40:14Z</time>
      </trkpt>
      <trkpt lat="46.95075" lon="-0.88231">
        <ele>123</ele>
        <time>2021-03-26T08:41:20Z</time>
      </trkpt>
      <trkpt lat="46.95045" lon="-0.88184">
        <ele>122</ele>
        <time>2021-03-26T08:41:56Z</time>
      </trkpt>
      <trkpt lat="46.94992" lon="-0.8813">
        <ele>119</ele>
        <time>2021-03-26T08:42:47Z</time>
      </trkpt>
      <trkpt lat="46.94959" lon="-0.88126">
        <ele>117</ele>
        <time>2021-03-26T08:43:14Z</time>
      </trkpt>
      <trkpt lat="46.94921" lon="-0.88101">
        <ele>115</ele>
        <time>2021-03-26T08:43:47Z</time>
      </trkpt>
      <trkpt lat="46.94888" lon="-0.88079">
        <ele>115</ele>
        <time>2021-03-26T08:44:16Z</time>
      </trkpt>
      <trkpt lat="46.94851" lon="-0.88054">
        <ele>116</ele>
        <time>2021-03-26T08:44:49Z</time>
      </trkpt>
      <trkpt lat="46.94778" lon="-0.88047">
        <ele>117</ele>
        <time>2021-03-26T08:45:47Z</time>
      </trkpt>
      <trkpt lat="46.94753" lon="-0.88048">
        <ele>118</ele>
        <time>2021-03-26T08:46:07Z</time>
      </trkpt>
      <trkpt lat="46.94727" lon="-0.88005">
        <ele>120</ele>
        <time>2021-03-26T08:46:39Z</time>
      </trkpt>
      <trkpt lat="46.94693" lon="-0.88039">
        <ele>121</ele>
        <time>2021-03-26T08:47:12Z</time>
      </trkpt>
      <trkpt lat="46.94652" lon="-0.88045">
        <ele>123</ele>
        <time>2021-03-26T08:47:45Z</time>
      </trkpt>
      <trkpt lat="46.94602" lon="-0.8805">
        <ele>127</ele>
        <time>2021-03-26T08:48:25Z</time>
      </trkpt>
      <trkpt lat="46.9454" lon="-0.88075">
        <ele>127</ele>
        <time>2021-03-26T08:49:16Z</time>
      </trkpt>
      <trkpt lat="46.94496" lon="-0.88102">
        <ele>125</ele>
        <time>2021-03-26T08:49:54Z</time>
      </trkpt>
      <trkpt lat="46.94461" lon="-0.88095">
        <ele>124</ele>
        <time>2021-03-26T08:50:23Z</time>
      </trkpt>
      <trkpt lat="46.94431" lon="-0.88068">
        <ele>126</ele>
        <time>2021-03-26T08:50:51Z</time>
      </trkpt>
      <trkpt lat="46.944" lon="-0.88032">
        <ele>128</ele>
        <time>2021-03-26T08:51:23Z</time>
      </trkpt>
      <trkpt lat="46.9437" lon="-0.87998">
        <ele>128</ele>
        <time>2021-03-26T08:51:53Z</time>
      </trkpt>
      <trkpt lat="46.94351" lon="-0.87996">
        <ele>126</ele>
        <time>2021-03-26T08:52:08Z</time>
      </trkpt>
      <trkpt lat="46.94315" lon="-0.88016">
        <ele>127</ele>
        <time>2021-03-26T08:52:39Z</time>
      </trkpt>
      <trkpt lat="46.94338" lon="-0.88106">
        <ele>124</ele>
        <time>2021-03-26T08:53:32Z</time>
      </trkpt>
      <trkpt lat="46.94314" lon="-0.8812">
        <ele>132</ele>
        <time>2021-03-26T08:53:52Z</time>
      </trkpt>
      <trkpt lat="46.94304" lon="-0.88148">
        <ele>139</ele>
        <time>2021-03-26T08:54:10Z</time>
      </trkpt>
      <trkpt lat="46.94328" lon="-0.88194">
        <ele>140</ele>
        <time>2021-03-26T08:54:41Z</time>
      </trkpt>
      <trkpt lat="46.94352" lon="-0.88229">
        <ele>143</ele>
        <time>2021-03-26T08:55:08Z</time>
      </trkpt>
      <trkpt lat="46.94371" lon="-0.88267">
        <ele>145</ele>
        <time>2021-03-26T08:55:34Z</time>
      </trkpt>
      <trkpt lat="46.944" lon="-0.88296">
        <ele>143</ele>
        <time>2021-03-26T08:56:02Z</time>
      </trkpt>
      <trkpt lat="46.94438" lon="-0.88315">
        <ele>143</ele>
        <time>2021-03-26T08:56:34Z</time>
      </trkpt>
      <trkpt lat="46.94476" lon="-0.88341">
        <ele>146</ele>
        <time>2021-03-26T08:57:08Z</time>
      </trkpt>
      <trkpt lat="46.94489" lon="-0.88369">
        <ele>147</ele>
        <time>2021-03-26T08:57:26Z</time>
      </trkpt>
      <trkpt lat="46.94455" lon="-0.88391">
        <ele>150</ele>
        <time>2021-03-26T08:57:56Z</time>
      </trkpt>
      <trkpt lat="46.94417" lon="-0.88398">
        <ele>153</ele>
        <time>2021-03-26T08:58:27Z</time>
      </trkpt>
      <trkpt lat="46.94396" lon="-0.8844">
        <ele>157</ele>
        <time>2021-03-26T08:58:55Z</time>
      </trkpt>
      <trkpt lat="46.94362" lon="-0.8853">
        <ele>162</ele>
        <time>2021-03-26T08:59:52Z</time>
      </trkpt>
      <trkpt lat="46.94316" lon="-0.88626">
        <ele>165</ele>
        <time>2021-03-26T09:00:56Z</time>
      </trkpt>
      <trkpt lat="46.94316" lon="-0.88653">
        <ele>166</ele>
        <time>2021-03-26T09:01:10Z</time>
      </trkpt>
      <trkpt lat="46.94286" lon="-0.88714">
        <ele>167</ele>
        <time>2021-03-26T09:01:52Z</time>
      </trkpt>
      <trkpt lat="46.9428" lon="-0.88747">
        <ele>167</ele>
        <time>2021-03-26T09:02:10Z</time>
      </trkpt>
      <trkpt lat="46.94312" lon="-0.88875">
        <ele>168</ele>
        <time>2021-03-26T09:03:25Z</time>
      </trkpt>
      <trkpt lat="46.94336" lon="-0.89014">
        <ele>169</ele>
        <time>2021-03-26T09:04:43Z</time>
      </trkpt>
      <trkpt lat="46.94341" lon="-0.89059">
        <ele>170</ele>
        <time>2021-03-26T09:05:08Z</time>
      </trkpt>
      <trkpt lat="46.94326" lon="-0.89111">
        <ele>170</ele>
        <time>2021-03-26T09:05:39Z</time>
      </trkpt>
      <trkpt lat="46.94332" lon="-0.89183">
        <ele>170</ele>
        <time>2021-03-26T09:06:19Z</time>
      </trkpt>
      <trkpt lat="46.94312" lon="-0.89225">
        <ele>170</ele>
        <time>2021-03-26T09:06:47Z</time>
      </trkpt>
      <trkpt lat="46.94273" lon="-0.89299">
        <ele>169</ele>
        <time>2021-03-26T09:07:38Z</time>
      </trkpt>
      <trkpt lat="46.94264" lon="-0.89337">
        <ele>169</ele>
        <time>2021-03-26T09:08:00Z</time>
      </trkpt>
      <trkpt lat="46.94253" lon="-0.89387">
        <ele>169</ele>
        <time>2021-03-26T09:08:28Z</time>
      </trkpt>
      <trkpt lat="46.94238" lon="-0.8949">
        <ele>171</ele>
        <time>2021-03-26T09:09:26Z</time>
      </trkpt>
      <trkpt lat="46.94222" lon="-0.89578">
        <ele>173</ele>
        <time>2021-03-26T09:10:16Z</time>
      </trkpt>
      <trkpt lat="46.9421" lon="-0.89661">
        <ele>173</ele>
        <time>2021-03-26T09:11:02Z</time>
      </trkpt>
      <trkpt lat="46.94204" lon="-0.89699">
        <ele>173</ele>
        <time>2021-03-26T09:11:23Z</time>
      </trkpt>
      <trkpt lat="46.94508" lon="-0.8961">
        <ele>173</ele>
        <time>2021-03-26T09:15:32Z</time>
      </trkpt>
      <trkpt lat="46.94557" lon="-0.89625">
        <ele>171</ele>
        <time>2021-03-26T09:16:12Z</time>
      </trkpt>
      <trkpt lat="46.94598" lon="-0.89617">
        <ele>170</ele>
        <time>2021-03-26T09:16:45Z</time>
      </trkpt>
      <trkpt lat="46.94649" lon="-0.89634">
        <ele>168</ele>
        <time>2021-03-26T09:17:27Z</time>
      </trkpt>
      <trkpt lat="46.94697" lon="-0.89658">
        <ele>167</ele>
        <time>2021-03-26T09:18:07Z</time>
      </trkpt>
      <trkpt lat="46.94741" lon="-0.89672">
        <ele>166</ele>
        <time>2021-03-26T09:18:43Z</time>
      </trkpt>
      <trkpt lat="46.94791" lon="-0.89687">
        <ele>164</ele>
        <time>2021-03-26T09:19:24Z</time>
      </trkpt>
      <trkpt lat="46.94846" lon="-0.89675">
        <ele>163</ele>
        <time>2021-03-26T09:20:09Z</time>
      </trkpt>
      <trkpt lat="46.94866" lon="-0.89716">
        <ele>161</ele>
        <time>2021-03-26T09:20:36Z</time>
      </trkpt>
      <trkpt lat="46.94897" lon="-0.89812">
        <ele>157</ele>
        <time>2021-03-26T09:21:34Z</time>
      </trkpt>
      <trkpt lat="46.9483" lon="-0.89868">
        <ele>159</ele>
        <time>2021-03-26T09:22:36Z</time>
      </trkpt>
      <trkpt lat="46.94763" lon="-0.89939">
        <ele>159</ele>
        <time>2021-03-26T09:23:42Z</time>
      </trkpt>
      <trkpt lat="46.94721" lon="-0.9">
        <ele>159</ele>
        <time>2021-03-26T09:24:30Z</time>
      </trkpt>
      <trkpt lat="46.94693" lon="-0.90045">
        <ele>160</ele>
        <time>2021-03-26T09:25:03Z</time>
      </trkpt>
      <trkpt lat="46.94657" lon="-0.90106">
        <ele>162</ele>
        <time>2021-03-26T09:25:47Z</time>
      </trkpt>
      <trkpt lat="46.94762" lon="-0.90101">
        <ele>160</ele>
        <time>2021-03-26T09:27:11Z</time>
      </trkpt>
      <trkpt lat="46.94802" lon="-0.90101">
        <ele>160</ele>
        <time>2021-03-26T09:27:43Z</time>
      </trkpt>
      <trkpt lat="46.94866" lon="-0.90139">
        <ele>159</ele>
        <time>2021-03-26T09:28:38Z</time>
      </trkpt>
      <trkpt lat="46.94904" lon="-0.90176">
        <ele>160</ele>
        <time>2021-03-26T09:29:15Z</time>
      </trkpt>
      <trkpt lat="46.94969" lon="-0.90247">
        <ele>160</ele>
        <time>2021-03-26T09:30:20Z</time>
      </trkpt>
      <trkpt lat="46.95025" lon="-0.90296">
        <ele>159</ele>
        <time>2021-03-26T09:31:12Z</time>
      </trkpt>
      <trkpt lat="46.95073" lon="-0.90337">
        <ele>159</ele>
        <time>2021-03-26T09:31:57Z</time>
      </trkpt>
      <trkpt lat="46.95112" lon="-0.90364">
        <ele>159</ele>
        <time>2021-03-26T09:32:31Z</time>
      </trkpt>
      <trkpt lat="46.95252" lon="-0.90573">
        <ele>161</ele>
        <time>2021-03-26T09:35:11Z</time>
      </trkpt>
      <trkpt lat="46.95286" lon="-0.90534">
        <ele>160</ele>
        <time>2021-03-26T09:35:46Z</time>
      </trkpt>
      <trkpt lat="46.95319" lon="-0.90485">
        <ele>160</ele>
        <time>2021-03-26T09:36:23Z</time>
      </trkpt>
      <trkpt lat="46.95361" lon="-0.90438">
        <ele>161</ele>
        <time>2021-03-26T09:37:06Z</time>
      </trkpt>
      <trkpt lat="46.95406" lon="-0.90403">
        <ele>162</ele>
        <time>2021-03-26T09:37:46Z</time>
      </trkpt>
      <trkpt lat="46.95443" lon="-0.9037">
        <ele>162</ele>
        <time>2021-03-26T09:38:21Z</time>
      </trkpt>
      <trkpt lat="46.95461" lon="-0.90321">
        <ele>161</ele>
        <time>2021-03-26T09:38:52Z</time>
      </trkpt>
      <trkpt lat="46.95482" lon="-0.90268">
        <ele>160</ele>
        <time>2021-03-26T09:39:25Z</time>
      </trkpt>
      <trkpt lat="46.95519" lon="-0.90221">
        <ele>159</ele>
        <time>2021-03-26T09:40:04Z</time>
      </trkpt>
      <trkpt lat="46.95557" lon="-0.9018">
        <ele>155</ele>
        <time>2021-03-26T09:40:42Z</time>
      </trkpt>
      <trkpt lat="46.9558" lon="-0.9012">
        <ele>148</ele>
        <time>2021-03-26T09:41:20Z</time>
      </trkpt>
      <trkpt lat="46.95604" lon="-0.90073">
        <ele>145</ele>
        <time>2021-03-26T09:41:52Z</time>
      </trkpt>
      <trkpt lat="46.95636" lon="-0.90056">
        <ele>144</ele>
        <time>2021-03-26T09:42:19Z</time>
      </trkpt>
      <trkpt lat="46.95694" lon="-0.90068">
        <ele>144</ele>
        <time>2021-03-26T09:43:06Z</time>
      </trkpt>
      <trkpt lat="46.95764" lon="-0.90118">
        <ele>144</ele>
        <time>2021-03-26T09:44:08Z</time>
      </trkpt>
      <trkpt lat="46.95788" lon="-0.90069">
        <ele>141</ele>
        <time>2021-03-26T09:44:41Z</time>
      </trkpt>
      <trkpt lat="46.95813" lon="-0.90029">
        <ele>140</ele>
        <time>2021-03-26T09:45:11Z</time>
      </trkpt>
      <trkpt lat="46.9584" lon="-0.89997">
        <ele>140</ele>
        <time>2021-03-26T09:45:39Z</time>
      </trkpt>
      <trkpt lat="46.95866" lon="-0.89974">
        <ele>140</ele>
        <time>2021-03-26T09:46:03Z</time>
      </trkpt>
      <trkpt lat="46.95912" lon="-0.89969">
        <ele>141</ele>
        <time>2021-03-26T09:46:40Z</time>
      </trkpt>
      <trkpt lat="46.95955" lon="-0.89995">
        <ele>141</ele>
        <time>2021-03-26T09:47:17Z</time>
      </trkpt>
      <trkpt lat="46.96042" lon="-0.90016">
        <ele>141</ele>
        <time>2021-03-26T09:48:28Z</time>
      </trkpt>
      <trkpt lat="46.9609" lon="-0.90024">
        <ele>139</ele>
        <time>2021-03-26T09:49:06Z</time>
      </trkpt>
      <trkpt lat="46.96131" lon="-0.90032">
        <ele>137</ele>
        <time>2021-03-26T09:49:40Z</time>
      </trkpt>
      <trkpt lat="46.96203" lon="-0.90089">
        <ele>132</ele>
        <time>2021-03-26T09:50:45Z</time>
      </trkpt>
      <trkpt lat="46.96203" lon="-0.90062">
        <ele>132</ele>
        <time>2021-03-26T09:51:00Z</time>
      </trkpt>
      <trkpt lat="46.96251" lon="-0.90066">
        <ele>128</ele>
        <time>2021-03-26T09:51:38Z</time>
      </trkpt>
      <trkpt lat="46.9629" lon="-0.90085">
        <ele>123</ele>
        <time>2021-03-26T09:52:11Z</time>
      </trkpt>
      <trkpt lat="46.96326" lon="-0.90076">
        <ele>119</ele>
        <time>2021-03-26T09:52:40Z</time>
      </trkpt>
      <trkpt lat="46.96362" lon="-0.90077">
        <ele>115</ele>
        <time>2021-03-26T09:53:09Z</time>
      </trkpt>
      <trkpt lat="46.96394" lon="-0.90053">
        <ele>111</ele>
        <time>2021-03-26T09:53:38Z</time>
      </trkpt>
      <trkpt lat="46.96398" lon="-0.9003">
        <ele>110</ele>
        <time>2021-03-26T09:53:51Z</time>
      </trkpt>
      <trkpt lat="46.96388" lon="-0.89991">
        <ele>110</ele>
        <time>2021-03-26T09:54:14Z</time>
      </trkpt>
      <trkpt lat="46.96333" lon="-0.89802">
        <ele>113</ele>
        <time>2021-03-26T09:56:06Z</time>
      </trkpt>
      <trkpt lat="46.96313" lon="-0.89774">
        <ele>114</ele>
        <time>2021-03-26T09:56:28Z</time>
      </trkpt>
      <trkpt lat="46.96333" lon="-0.89728">
        <ele>113</ele>
        <time>2021-03-26T09:56:58Z</time>
      </trkpt>
      <trkpt lat="46.96341" lon="-0.89681">
        <ele>118</ele>
        <time>2021-03-26T09:57:25Z</time>
      </trkpt>
      <trkpt lat="46.96326" lon="-0.89655">
        <ele>119</ele>
        <time>2021-03-26T09:57:43Z</time>
      </trkpt>
      <trkpt lat="46.96223" lon="-0.89566">
        <ele>115</ele>
        <time>2021-03-26T09:59:19Z</time>
      </trkpt>
      <trkpt lat="46.96244" lon="-0.89525">
        <ele>117</ele>
        <time>2021-03-26T09:59:47Z</time>
      </trkpt>
      <trkpt lat="46.96277" lon="-0.89504">
        <ele>120</ele>
        <time>2021-03-26T10:00:16Z</time>
      </trkpt>
      <trkpt lat="46.9631" lon="-0.89472">
        <ele>120</ele>
        <time>2021-03-26T10:00:47Z</time>
      </trkpt>
      <trkpt lat="46.96328" lon="-0.89446">
        <ele>117</ele>
        <time>2021-03-26T10:01:08Z</time>
      </trkpt>
      <trkpt lat="46.96327" lon="-0.89379">
        <ele>113</ele>
        <time>2021-03-26T10:01:44Z</time>
      </trkpt>
      <trkpt lat="46.96321" lon="-0.89306">
        <ele>111</ele>
        <time>2021-03-26T10:02:24Z</time>
      </trkpt>
      <trkpt lat="46.96319" lon="-0.89229">
        <ele>109</ele>
        <time>2021-03-26T10:03:07Z</time>
      </trkpt>
      <trkpt lat="46.96316" lon="-0.89141">
        <ele>111</ele>
        <time>2021-03-26T10:03:55Z</time>
      </trkpt>
      <trkpt lat="46.96346" lon="-0.89129">
        <ele>112</ele>
        <time>2021-03-26T10:04:20Z</time>
      </trkpt>
      <trkpt lat="46.96344" lon="-0.89077">
        <ele>113</ele>
        <time>2021-03-26T10:04:48Z</time>
      </trkpt>
      <trkpt lat="46.96284" lon="-0.88932">
        <ele>114</ele>
        <time>2021-03-26T10:06:21Z</time>
      </trkpt>
      <trkpt lat="46.96265" lon="-0.88898">
        <ele>115</ele>
        <time>2021-03-26T10:06:45Z</time>
      </trkpt>
      <trkpt lat="46.96219" lon="-0.88848">
        <ele>115</ele>
        <time>2021-03-26T10:07:31Z</time>
      </trkpt>
      <trkpt lat="46.96151" lon="-0.88784">
        <ele>112</ele>
        <time>2021-03-26T10:08:35Z</time>
      </trkpt>
      <trkpt lat="46.96118" lon="-0.88756">
        <ele>112</ele>
        <time>2021-03-26T10:09:06Z</time>
      </trkpt>
      <trkpt lat="46.96052" lon="-0.88736">
        <ele>112</ele>
        <time>2021-03-26T10:10:00Z</time>
      </trkpt>
      <trkpt lat="46.96027" lon="-0.88727">
        <ele>113</ele>
        <time>2021-03-26T10:10:20Z</time>
      </trkpt>
      <trkpt lat="46.96035" lon="-0.88702">
        <ele>113</ele>
        <time>2021-03-26T10:10:35Z</time>
      </trkpt>
      <trkpt lat="46.96013" lon="-0.88693">
        <ele>113</ele>
        <time>2021-03-26T10:10:54Z</time>
      </trkpt>
      <trkpt lat="46.95956" lon="-0.88702">
        <ele>112</ele>
        <time>2021-03-26T10:11:40Z</time>
      </trkpt>
      <trkpt lat="46.95938" lon="-0.88649">
        <ele>112</ele>
        <time>2021-03-26T10:12:12Z</time>
      </trkpt>
    </trkseg>
  </trk>
</gpx>